createdAt,value
2023-05-14T00:04:22.734Z,47.86
2023-05-14T00:09:25.170Z,48.29
2023-05-14T00:14:29.296Z,48.54
2023-05-14T00:19:31.774Z,48.44
2023-05-14T00:24:34.816Z,48.54
2023-05-14T00:29:37.309Z,48.99
2023-05-14T00:34:39.790Z,48.98
2023-05-14T00:39:43.413Z,49.33
2023-05-14T00:44:45.845Z,49.86
2023-05-14T00:49:48.482Z,50.25
2023-05-14T00:54:51.052Z,50.63
2023-05-14T00:59:53.585Z,50.67
2023-05-14T01:04:56.507Z,50.99
2023-05-14T01:10:07.364Z,52.50
2023-05-14T01:15:20.652Z,52.54
2023-05-14T01:20:27.433Z,51.96
2023-05-14T01:25:31.047Z,51.97
2023-05-14T01:31:02.111Z,52.81
2023-05-14T01:36:05.677Z,52.18
2023-05-14T01:41:08.168Z,52.50
2023-05-14T01:46:10.673Z,52.77
2023-05-14T01:51:15.131Z,53.12
2023-05-14T01:56:22.116Z,53.48
2023-05-14T02:01:26.540Z,53.63
2023-05-14T02:06:29.184Z,53.84
2023-05-14T02:11:31.821Z,53.99
2023-05-14T02:16:34.509Z,54.45
2023-05-14T02:21:37.049Z,54.78
2023-05-14T02:26:39.839Z,54.78
2023-05-14T02:31:42.349Z,55.08
2023-05-14T02:36:44.786Z,54.92
2023-05-14T02:41:47.173Z,55.13
2023-05-14T02:46:49.702Z,55.25
2023-05-14T02:51:52.179Z,55.17
2023-05-14T02:56:54.616Z,55.31
2023-05-14T03:01:57.094Z,54.90
2023-05-14T03:06:59.965Z,55.12
2023-05-14T03:12:02.462Z,55.11
2023-05-14T03:17:05.095Z,54.92
2023-05-14T03:22:07.517Z,55.07
2023-05-14T03:27:09.928Z,54.69
2023-05-14T03:32:12.374Z,54.90
2023-05-14T03:37:14.834Z,54.80
2023-05-14T03:42:17.335Z,54.67
2023-05-14T03:47:19.982Z,54.03
2023-05-14T03:52:22.444Z,53.60
2023-05-14T03:57:25.013Z,53.18
2023-05-14T04:02:27.425Z,53.10
2023-05-14T04:07:31.309Z,52.92
2023-05-14T04:12:33.851Z,52.27
2023-05-14T04:17:36.473Z,52.25
2023-05-14T04:22:38.970Z,51.50
2023-05-14T04:27:41.446Z,51.59
2023-05-14T04:32:44.754Z,51.33
2023-05-14T04:37:47.199Z,50.89
2023-05-14T04:42:49.830Z,50.76
2023-05-14T04:47:52.724Z,50.47
2023-05-14T04:52:56.399Z,49.79
2023-05-14T04:57:58.826Z,49.00
2023-05-14T05:03:01.485Z,49.02
2023-05-14T05:08:04.034Z,48.63
2023-05-14T05:13:06.414Z,48.20
2023-05-14T05:18:09.121Z,47.72
2023-05-14T05:23:11.762Z,47.42
2023-05-14T05:28:14.374Z,46.47
2023-05-14T05:33:16.925Z,45.77
2023-05-14T05:38:19.543Z,45.40
2023-05-14T05:43:22.128Z,45.14
2023-05-14T05:48:24.613Z,44.86
2023-05-14T05:53:27.664Z,44.58
2023-05-14T05:58:30.251Z,44.73
2023-05-14T06:03:32.713Z,44.07
2023-05-14T06:08:35.185Z,43.44
2023-05-14T06:13:37.653Z,43.22
2023-05-14T06:18:40.200Z,42.77
2023-05-14T06:23:42.678Z,42.08
2023-05-14T06:28:45.329Z,42.95
2023-05-14T06:33:47.920Z,42.12
2023-05-14T06:38:50.432Z,41.56
2023-05-14T06:43:52.928Z,40.37
2023-05-14T06:48:57.998Z,40.58
2023-05-14T06:54:01.763Z,40.69
2023-05-14T06:59:04.244Z,40.30
2023-05-14T07:04:06.850Z,39.99
2023-05-14T07:09:09.346Z,40.62
2023-05-14T07:14:11.865Z,40.50
2023-05-14T07:19:14.470Z,39.65
2023-05-14T07:24:17.001Z,39.09
2023-05-14T07:29:20.094Z,38.49
2023-05-14T07:34:22.651Z,39.77
2023-05-14T07:39:26.429Z,40.22
2023-05-14T07:44:28.923Z,40.43
2023-05-14T07:49:34.896Z,40.60
2023-05-14T07:54:37.428Z,41.05
2023-05-14T08:00:03.294Z,40.10
2023-05-14T08:05:15.724Z,40.48
2023-05-14T08:10:18.328Z,40.10
2023-05-14T08:15:22.044Z,40.49
2023-05-14T08:20:24.884Z,40.58
2023-05-14T08:25:27.562Z,40.05
2023-05-14T08:30:30.111Z,40.51
2023-05-14T08:35:33.301Z,40.37
2023-05-14T08:40:36.855Z,40.36
2023-05-14T08:45:40.876Z,40.74
2023-05-14T08:50:44.014Z,40.13
2023-05-14T08:55:47.621Z,39.17
2023-05-14T09:00:51.255Z,39.91
2023-05-14T09:05:54.314Z,40.50
2023-05-14T09:10:56.951Z,39.49
2023-05-14T09:15:59.515Z,38.79
2023-05-14T09:21:03.014Z,38.33
2023-05-14T09:26:06.484Z,37.58
2023-05-14T09:31:10.239Z,37.97
2023-05-14T09:36:12.849Z,37.30
2023-05-14T09:41:15.280Z,37.81
2023-05-14T09:46:18.141Z,37.11
2023-05-14T09:51:21.460Z,36.42
2023-05-14T09:56:23.987Z,38.03
2023-05-14T10:01:27.398Z,38.21
2023-05-14T10:06:39.563Z,38.32
2023-05-14T10:11:45.393Z,37.98
2023-05-14T10:16:50.655Z,38.11
2023-05-14T10:21:58.177Z,37.20
2023-05-14T10:27:02.157Z,37.44
2023-05-14T10:32:09.422Z,36.83
2023-05-14T10:37:21.457Z,36.62
2023-05-14T10:42:25.172Z,36.45
2023-05-14T10:47:32.346Z,35.86
2023-05-14T10:52:36.508Z,36.32
2023-05-14T10:57:40.267Z,36.36
2023-05-14T11:02:44.455Z,37.14
2023-05-14T11:07:49.171Z,37.04
2023-05-14T11:12:52.537Z,37.10
2023-05-14T11:17:55.558Z,37.27
2023-05-14T11:22:58.151Z,37.00
2023-05-14T11:28:01.343Z,36.61
2023-05-14T11:33:04.155Z,36.17
2023-05-14T11:38:07.991Z,35.36
2023-05-14T11:43:11.862Z,35.05
2023-05-14T11:48:15.383Z,35.69
2023-05-14T11:53:26.529Z,36.17
2023-05-14T11:58:32.959Z,35.05
2023-05-14T12:03:35.853Z,35.43
2023-05-14T12:08:38.523Z,36.16
2023-05-14T12:13:41.225Z,36.25
2023-05-14T12:18:43.903Z,35.81
2023-05-14T12:23:46.576Z,36.78
2023-05-14T12:28:49.373Z,36.29
2023-05-14T12:33:52.043Z,36.55
2023-05-14T12:39:05.796Z,36.59
2023-05-14T12:44:08.420Z,37.16
2023-05-14T12:49:11.633Z,36.13
2023-05-14T12:54:16.176Z,36.78
2023-05-14T12:59:18.875Z,36.60
2023-05-14T13:04:21.434Z,36.88
2023-05-14T13:09:25.110Z,37.14
2023-05-14T13:14:27.632Z,37.47
2023-05-14T13:19:30.143Z,36.87
2023-05-14T13:24:32.677Z,37.38
2023-05-14T13:29:35.225Z,37.44
2023-05-14T13:34:37.812Z,37.55
2023-05-14T13:39:41.136Z,37.68
2023-05-14T13:44:43.932Z,37.44
2023-05-14T13:49:46.658Z,37.87
2023-05-14T13:54:51.845Z,38.17
2023-05-14T13:59:55.605Z,38.44
2023-05-14T14:04:58.215Z,38.04
2023-05-14T14:10:01.976Z,38.32
2023-05-14T14:15:08.092Z,37.76
2023-05-14T14:20:11.213Z,38.45
2023-05-14T14:25:13.761Z,38.04
2023-05-14T14:30:17.878Z,37.98
2023-05-14T14:35:20.768Z,37.92
2023-05-14T14:40:24.235Z,37.73
2023-05-14T14:45:26.828Z,38.03
2023-05-14T14:50:29.589Z,38.31
2023-05-14T14:55:32.120Z,37.86
2023-05-14T15:00:34.881Z,38.08
2023-05-14T15:05:37.618Z,38.67
2023-05-14T15:10:41.544Z,39.35
2023-05-14T15:15:44.255Z,39.51
2023-05-14T15:20:46.860Z,39.21
2023-05-14T15:25:50.320Z,39.26
2023-05-14T15:30:53.306Z,39.17
2023-05-14T15:35:58.408Z,39.36
2023-05-14T15:41:01.126Z,39.22
2023-05-14T15:46:03.918Z,39.28
2023-05-14T15:51:06.723Z,39.56
2023-05-14T15:56:09.411Z,39.60
2023-05-14T16:01:11.961Z,39.40
2023-05-14T16:06:14.400Z,39.77
2023-05-14T16:11:16.910Z,39.91
2023-05-14T16:16:21.088Z,39.91
2023-05-14T16:21:23.666Z,40.41
2023-05-14T16:26:26.898Z,40.72
2023-05-14T16:31:29.540Z,40.36
2023-05-14T16:36:32.765Z,40.23
2023-05-14T16:41:36.272Z,40.04
2023-05-14T16:46:38.883Z,39.99
2023-05-14T16:51:43.506Z,40.72
2023-05-14T16:56:48.757Z,41.03
2023-05-14T17:01:51.448Z,40.75
2023-05-14T17:06:54.011Z,40.87
2023-05-14T17:11:56.635Z,40.81
2023-05-14T17:16:59.237Z,41.23
2023-05-14T17:22:01.830Z,41.55
2023-05-14T17:27:04.958Z,41.49
2023-05-14T17:32:07.975Z,41.89
2023-05-14T17:37:10.607Z,42.25
2023-05-14T17:42:13.100Z,42.01
2023-05-14T17:47:15.838Z,42.43
2023-05-14T17:52:19.646Z,42.72
2023-05-14T17:57:23.206Z,43.14
2023-05-14T18:02:26.150Z,43.44
2023-05-14T18:07:29.613Z,43.87
2023-05-14T18:12:32.204Z,44.36
2023-05-14T18:17:34.965Z,44.42
2023-05-14T18:22:39.646Z,44.77
2023-05-14T18:27:45.318Z,45.27
2023-05-14T18:32:48.443Z,45.58
2023-05-14T18:37:51.233Z,45.86
2023-05-14T18:42:56.966Z,46.44
2023-05-14T18:47:59.780Z,46.61
2023-05-14T18:53:02.396Z,47.11
2023-05-14T18:58:10.020Z,47.70
2023-05-14T19:03:15.990Z,47.99
2023-05-14T19:08:20.037Z,48.48
2023-05-14T19:13:22.909Z,48.52
2023-05-14T19:18:25.578Z,48.59
2023-05-14T19:23:28.158Z,48.77
2023-05-14T19:28:32.960Z,48.78
2023-05-14T19:33:38.556Z,49.36
2023-05-14T19:38:41.364Z,49.54
2023-05-14T19:43:43.785Z,49.73
2023-05-14T19:48:46.366Z,50.02
2023-05-14T19:53:49.208Z,50.60
2023-05-14T19:58:53.314Z,51.09
2023-05-14T20:03:55.875Z,51.26
2023-05-14T20:08:58.331Z,51.57
2023-05-14T20:14:02.071Z,51.80
2023-05-14T20:19:05.317Z,52.02
2023-05-14T20:24:08.081Z,52.34
2023-05-14T20:29:14.702Z,52.83
2023-05-14T20:34:19.479Z,53.16
2023-05-14T20:39:22.505Z,53.25
2023-05-14T20:44:25.007Z,53.52
2023-05-14T20:49:28.243Z,53.60
2023-05-14T20:54:31.248Z,53.89
2023-05-14T20:59:33.855Z,54.03
2023-05-14T21:04:36.461Z,54.21
2023-05-14T21:09:39.291Z,54.59
2023-05-14T21:14:42.740Z,54.68
2023-05-14T21:19:45.482Z,54.73
2023-05-14T21:24:47.931Z,54.83
2023-05-14T21:29:50.372Z,55.23
2023-05-14T21:34:52.928Z,55.19
2023-05-14T21:39:55.591Z,55.22
2023-05-14T21:44:58.312Z,55.68
2023-05-14T21:50:00.799Z,55.73
2023-05-14T21:55:03.379Z,55.97
2023-05-14T22:00:13.298Z,56.34
2023-05-14T22:05:17.899Z,56.21
2023-05-14T22:10:20.506Z,56.32
2023-05-14T22:15:23.620Z,56.43
2023-05-14T22:20:26.368Z,56.74
2023-05-14T22:25:28.892Z,57.00
2023-05-14T22:30:31.285Z,57.35
2023-05-14T22:35:33.885Z,57.45
2023-05-14T22:40:36.792Z,57.79
2023-05-14T22:45:39.315Z,57.57
2023-05-14T22:50:41.949Z,57.74
2023-05-14T22:55:44.491Z,58.04
2023-05-14T23:00:47.048Z,58.37
2023-05-14T23:05:49.734Z,58.43
2023-05-14T23:10:52.351Z,58.72
2023-05-14T23:15:55.020Z,58.72
2023-05-14T23:20:57.951Z,59.13
2023-05-14T23:26:00.483Z,59.15
2023-05-14T23:31:03.051Z,59.30
2023-05-14T23:36:05.786Z,59.41
2023-05-14T23:41:08.289Z,59.60
2023-05-14T23:46:11.001Z,59.67
2023-05-14T23:51:13.499Z,59.72
2023-05-14T23:56:16.408Z,60.00
